createdAt,value
2023-01-20T00:01:04.190Z,15.77
2023-01-20T00:03:31.330Z,16.05
2023-01-20T00:05:58.902Z,14.40
2023-01-20T00:08:25.993Z,16.80
2023-01-20T00:10:53.151Z,15.95
2023-01-20T00:13:20.357Z,15.95
2023-01-20T00:15:48.358Z,15.38
2023-01-20T00:18:15.728Z,15.15
2023-01-20T00:20:42.964Z,14.32
2023-01-20T00:23:10.117Z,14.00
2023-01-20T00:25:37.231Z,14.77
2023-01-20T00:28:04.573Z,14.38
2023-01-20T00:30:32.346Z,13.48
2023-01-20T00:32:59.651Z,14.52
2023-01-20T00:35:26.865Z,14.15
2023-01-20T00:37:53.955Z,15.73
2023-01-20T00:40:21.091Z,15.25
2023-01-20T00:42:48.251Z,15.25
2023-01-20T00:45:15.834Z,14.48
2023-01-20T00:47:43.082Z,15.23
2023-01-20T00:50:10.533Z,14.30
2023-01-20T00:52:37.678Z,14.20
2023-01-20T00:55:05.031Z,14.07
2023-01-20T00:57:32.176Z,14.15
2023-01-20T00:59:59.260Z,13.85
2023-01-20T01:02:26.390Z,13.43
2023-01-20T01:04:53.598Z,13.98
2023-01-20T01:07:20.706Z,13.13
2023-01-20T01:09:47.869Z,14.70
2023-01-20T01:12:15.035Z,14.23
2023-01-20T01:14:42.197Z,15.30
2023-01-20T01:17:09.277Z,14.68
2023-01-20T01:19:36.438Z,14.45
2023-01-20T01:22:03.516Z,14.88
2023-01-20T01:24:30.623Z,14.23
2023-01-20T01:26:58.045Z,14.52
2023-01-20T01:29:25.183Z,15.98
2023-01-20T01:31:52.280Z,15.63
2023-01-20T01:34:19.444Z,15.55
2023-01-20T01:36:46.546Z,15.32
2023-01-20T01:39:13.632Z,15.32
2023-01-20T01:41:40.829Z,14.35
2023-01-20T01:44:09.640Z,15.30
2023-01-20T01:46:37.065Z,15.57
2023-01-20T01:49:06.646Z,13.57
2023-01-20T01:51:39.294Z,14.40
2023-01-20T01:54:10.509Z,15.10
2023-01-20T01:56:38.358Z,15.32
2023-01-20T01:59:05.711Z,14.88
2023-01-20T02:01:33.977Z,16.13
2023-01-20T02:04:04.261Z,15.38
2023-01-20T02:06:33.429Z,15.30
2023-01-20T02:09:02.207Z,16.48
2023-01-20T02:11:30.241Z,14.82
2023-01-20T02:13:57.456Z,15.93
2023-01-20T02:16:35.167Z,18.05
2023-01-20T02:19:21.036Z,19.00
2023-01-20T02:22:07.056Z,19.50
2023-01-20T02:25:09.661Z,21.02
2023-01-20T02:27:39.665Z,19.63
2023-01-20T02:30:09.599Z,20.48
2023-01-20T02:32:42.647Z,20.15
2023-01-20T02:35:15.850Z,19.23
2023-01-20T02:37:52.237Z,17.95
2023-01-20T02:40:28.681Z,18.05
2023-01-20T02:43:02.710Z,18.70
2023-01-20T02:45:36.274Z,17.33
2023-01-20T02:48:09.531Z,17.75
2023-01-20T02:50:43.751Z,17.85
2023-01-20T02:53:11.875Z,17.20
2023-01-20T02:55:44.967Z,15.65
2023-01-20T02:58:16.883Z,16.42
2023-01-20T03:00:51.082Z,17.25
2023-01-20T03:03:20.446Z,16.70
2023-01-20T03:05:51.680Z,16.40
2023-01-20T03:10:46.982Z,16.27
2023-01-20T03:13:14.089Z,16.48
2023-01-20T03:15:47.863Z,16.23
2023-01-20T03:18:14.987Z,15.20
2023-01-20T03:20:42.096Z,15.90
2023-01-20T03:23:09.275Z,16.88
2023-01-20T03:25:38.022Z,15.15
2023-01-20T03:28:05.441Z,15.35
2023-01-20T03:30:32.736Z,16.02
2023-01-20T03:33:00.040Z,15.63
2023-01-20T03:35:28.425Z,15.38
2023-01-20T03:37:55.613Z,15.48
2023-01-20T03:40:24.358Z,16.17
2023-01-20T03:42:52.670Z,16.42
2023-01-20T03:45:32.661Z,15.63
2023-01-20T03:48:14.263Z,16.20
2023-01-20T03:50:58.934Z,17.33
2023-01-20T03:53:26.029Z,15.82
2023-01-20T03:55:57.198Z,16.33
2023-01-20T03:58:35.110Z,16.25
2023-01-20T04:01:16.149Z,15.15
2023-01-20T04:03:48.036Z,16.05
2023-01-20T04:06:15.941Z,15.32
2023-01-20T04:08:56.911Z,13.43
2023-01-20T04:11:24.316Z,14.93
2023-01-20T04:13:51.852Z,14.55
2023-01-20T04:16:20.621Z,15.82
2023-01-20T04:18:49.033Z,14.25
2023-01-20T04:21:20.665Z,14.45
2023-01-20T04:23:52.197Z,15.13
2023-01-20T04:26:19.288Z,14.48
2023-01-20T04:28:46.440Z,14.68
2023-01-20T04:31:28.961Z,15.00
2023-01-20T04:33:57.520Z,16.27
2023-01-20T04:36:24.654Z,16.58
2023-01-20T04:38:51.801Z,16.08
2023-01-20T04:41:18.963Z,17.17
2023-01-20T04:43:46.554Z,15.38
2023-01-20T04:46:14.038Z,15.32
2023-01-20T04:48:41.244Z,16.55
2023-01-20T04:51:08.804Z,14.77
2023-01-20T04:53:35.922Z,16.45
2023-01-20T04:56:03.138Z,15.00
2023-01-20T04:58:30.240Z,15.13
2023-01-20T05:00:57.348Z,15.95
2023-01-20T05:03:24.547Z,16.00
2023-01-20T05:05:55.145Z,14.40
2023-01-20T05:08:22.651Z,15.98
2023-01-20T05:10:49.834Z,15.77
2023-01-20T05:13:16.960Z,15.15
2023-01-20T05:15:44.666Z,14.65
2023-01-20T05:18:11.857Z,15.57
2023-01-20T05:20:39.043Z,15.07
2023-01-20T05:23:06.610Z,14.93
2023-01-20T05:25:33.856Z,13.85
2023-01-20T05:28:01.061Z,13.18
2023-01-20T05:30:28.250Z,15.30
2023-01-20T05:32:55.542Z,15.68
2023-01-20T05:35:22.639Z,14.05
2023-01-20T05:37:52.996Z,12.75
2023-01-20T05:40:20.187Z,14.37
2023-01-20T05:42:47.252Z,13.65
2023-01-20T05:45:14.604Z,14.35
2023-01-20T05:47:41.926Z,13.98
2023-01-20T05:50:09.330Z,14.70
2023-01-20T05:52:36.419Z,14.65
2023-01-20T05:55:03.627Z,14.25
2023-01-20T05:57:30.713Z,14.57
2023-01-20T05:59:57.808Z,14.55
2023-01-20T06:02:24.974Z,13.85
2023-01-20T06:04:52.125Z,14.38
2023-01-20T06:07:19.227Z,15.80
2023-01-20T06:09:46.403Z,13.23
2023-01-20T06:12:13.525Z,14.07
2023-01-20T06:14:40.649Z,14.98
2023-01-20T06:17:07.823Z,13.75
2023-01-20T06:19:34.922Z,14.25
2023-01-20T06:22:02.037Z,14.52
2023-01-20T06:24:29.207Z,14.73
2023-01-20T06:26:56.339Z,13.60
2023-01-20T06:29:23.437Z,15.27
2023-01-20T06:31:50.658Z,15.30
2023-01-20T06:34:17.771Z,14.85
2023-01-20T06:36:44.838Z,15.27
2023-01-20T06:39:11.973Z,14.30
2023-01-20T06:41:39.063Z,13.88
2023-01-20T06:44:06.204Z,13.82
2023-01-20T06:46:33.414Z,13.60
2023-01-20T06:49:00.933Z,12.93
2023-01-20T06:51:29.372Z,13.43
2023-01-20T06:53:56.901Z,13.25
2023-01-20T06:56:24.298Z,13.23
2023-01-20T06:58:52.009Z,13.82
2023-01-20T07:01:26.406Z,13.80
2023-01-20T07:03:54.054Z,12.32
2023-01-20T07:06:41.545Z,12.50
2023-01-20T07:09:10.002Z,13.40
2023-01-20T07:11:37.253Z,13.48
2023-01-20T07:14:05.297Z,12.85
2023-01-20T07:16:32.586Z,13.25
2023-01-20T07:18:59.745Z,12.60
2023-01-20T07:21:27.192Z,11.70
2023-01-20T07:23:54.412Z,12.35
2023-01-20T07:26:23.175Z,11.45
2023-01-20T07:28:50.516Z,11.52
2023-01-20T07:31:18.990Z,12.18
2023-01-20T07:33:46.508Z,11.30
2023-01-20T07:36:14.319Z,11.48
2023-01-20T07:38:41.634Z,11.55
2023-01-20T07:41:16.490Z,12.55
2023-01-20T07:43:44.249Z,11.70
2023-01-20T07:46:11.982Z,12.15
2023-01-20T07:48:39.573Z,11.60
2023-01-20T07:51:08.249Z,11.50
2023-01-20T07:53:39.631Z,10.70
2023-01-20T07:58:34.157Z,9.85
2023-01-20T08:01:10.635Z,10.35
2023-01-20T08:03:37.816Z,10.35
2023-01-20T08:06:05.675Z,11.10
2023-01-20T08:08:33.155Z,10.35
2023-01-20T08:11:01.361Z,9.43
2023-01-20T08:13:29.075Z,9.90
2023-01-20T08:15:56.767Z,9.50
2023-01-20T08:18:23.884Z,9.10
2023-01-20T08:20:51.047Z,9.65
2023-01-20T08:23:18.169Z,10.00
2023-01-20T08:25:45.297Z,9.68
2023-01-20T08:28:12.447Z,8.73
2023-01-20T08:30:39.908Z,9.18
2023-01-20T08:33:07.057Z,9.63
2023-01-20T08:35:35.506Z,10.13
2023-01-20T08:38:03.532Z,9.52
2023-01-20T08:40:31.319Z,9.32
2023-01-20T08:42:59.582Z,9.50
2023-01-20T08:45:26.791Z,10.07
2023-01-20T08:47:54.293Z,10.38
2023-01-20T08:50:23.351Z,10.10
2023-01-20T08:52:50.718Z,10.13
2023-01-20T08:55:17.891Z,11.13
2023-01-20T08:57:45.859Z,10.15
2023-01-20T09:00:13.926Z,11.38
2023-01-20T09:02:41.273Z,11.05
2023-01-20T09:05:08.767Z,11.02
2023-01-20T09:07:36.445Z,11.00
2023-01-20T09:10:04.793Z,11.88
2023-01-20T09:12:31.908Z,12.65
2023-01-20T09:14:59.226Z,16.35
2023-01-20T09:17:26.402Z,13.20
2023-01-20T09:19:54.512Z,11.95
2023-01-20T09:22:21.721Z,12.35
2023-01-20T09:24:48.796Z,11.55
2023-01-20T09:27:15.933Z,13.18
2023-01-20T09:29:43.063Z,12.38
2023-01-20T09:32:11.617Z,13.23
2023-01-20T09:34:39.172Z,13.85
2023-01-20T09:37:25.030Z,14.93
2023-01-20T09:40:11.060Z,13.52
2023-01-20T09:43:15.554Z,14.80
2023-01-20T09:45:48.774Z,16.83
2023-01-20T09:48:43.876Z,17.33
2023-01-20T09:51:37.846Z,17.10
2023-01-20T09:54:12.055Z,16.10
2023-01-20T09:56:42.793Z,13.98
2023-01-20T09:59:36.283Z,13.60
2023-01-20T10:02:07.829Z,13.20
2023-01-20T10:04:55.270Z,10.95
2023-01-20T10:07:22.659Z,10.63
2023-01-20T10:09:55.700Z,10.82
2023-01-20T10:12:32.695Z,9.73
2023-01-20T10:15:08.165Z,10.68
2023-01-20T10:17:38.140Z,10.38
2023-01-20T10:20:08.662Z,11.88
2023-01-20T10:22:35.730Z,10.60
2023-01-20T10:25:28.423Z,9.63
2023-01-20T10:28:02.695Z,10.50
2023-01-20T10:30:33.888Z,10.88
2023-01-20T10:33:08.134Z,10.55
2023-01-20T10:35:38.193Z,9.63
2023-01-20T10:38:09.595Z,10.32
2023-01-20T10:40:39.943Z,10.05
2023-01-20T10:43:14.215Z,11.93
2023-01-20T10:45:47.382Z,10.90
2023-01-20T10:48:26.389Z,10.63
2023-01-20T10:51:02.380Z,11.45
2023-01-20T10:53:36.639Z,11.63
2023-01-20T10:56:14.269Z,11.63
2023-01-20T10:58:44.359Z,12.30
2023-01-20T11:01:14.407Z,11.10
2023-01-20T11:03:43.086Z,11.20
2023-01-20T11:06:28.390Z,10.98
2023-01-20T11:08:56.325Z,12.48
2023-01-20T11:11:25.301Z,11.85
2023-01-20T11:13:53.303Z,12.73
2023-01-20T11:16:25.226Z,13.90
2023-01-20T11:19:06.246Z,12.63
2023-01-20T11:21:36.586Z,11.70
2023-01-20T11:24:05.435Z,13.63
2023-01-20T11:26:34.029Z,14.82
2023-01-20T11:29:02.263Z,13.20
2023-01-20T11:31:41.747Z,12.50
2023-01-20T11:34:31.198Z,10.93
2023-01-20T11:37:07.580Z,13.27
2023-01-20T11:39:43.325Z,13.90
2023-01-20T11:42:12.573Z,13.93
2023-01-20T11:44:43.720Z,12.80
2023-01-20T11:47:24.868Z,14.07
2023-01-20T11:50:10.363Z,11.52
2023-01-20T11:52:45.767Z,12.23
2023-01-20T11:55:12.888Z,11.93
2023-01-20T11:58:00.340Z,12.27
2023-01-20T12:00:27.397Z,11.05
2023-01-20T12:03:05.007Z,11.77
2023-01-20T12:05:40.073Z,12.77
2023-01-20T12:08:11.034Z,11.43
2023-01-20T12:10:39.765Z,11.48
2023-01-20T12:13:12.775Z,11.27
2023-01-20T12:15:42.355Z,10.52
2023-01-20T12:18:16.835Z,10.60
2023-01-20T12:20:56.444Z,11.45
2023-01-20T12:23:23.562Z,10.77
2023-01-20T12:25:56.580Z,11.23
2023-01-20T12:28:30.247Z,10.93
2023-01-20T12:31:01.474Z,11.35
2023-01-20T12:36:08.791Z,10.80
2023-01-20T12:38:42.153Z,11.55
2023-01-20T12:41:14.437Z,12.10
2023-01-20T12:43:57.872Z,13.20
2023-01-20T12:46:30.663Z,13.07
2023-01-20T12:49:11.603Z,12.05
2023-01-20T12:51:51.243Z,12.57
2023-01-20T12:54:25.950Z,12.45
2023-01-20T12:56:57.267Z,12.93
2023-01-20T12:59:30.844Z,11.40
2023-01-20T13:01:57.983Z,12.25
2023-01-20T13:04:43.853Z,12.07
2023-01-20T13:07:29.942Z,10.60
2023-01-20T13:10:16.081Z,11.52
2023-01-20T13:12:49.925Z,10.80
2023-01-20T13:15:17.089Z,11.95
2023-01-20T13:17:50.329Z,10.98
2023-01-20T13:20:22.817Z,10.93
2023-01-20T13:22:50.601Z,9.90
2023-01-20T13:25:19.006Z,10.70
2023-01-20T13:27:46.568Z,11.23
2023-01-20T13:30:32.654Z,10.70
2023-01-20T13:33:04.029Z,9.55
2023-01-20T13:35:32.346Z,9.10
2023-01-20T13:38:00.678Z,9.50
2023-01-20T13:40:33.545Z,9.68
2023-01-20T13:43:00.713Z,8.85
2023-01-20T13:45:27.995Z,8.73
2023-01-20T13:47:55.118Z,8.75
2023-01-20T13:50:25.073Z,8.57
2023-01-20T13:52:52.376Z,9.00
2023-01-20T13:55:38.235Z,8.40
2023-01-20T13:58:05.317Z,9.00
2023-01-20T14:00:32.394Z,10.15
2023-01-20T14:02:59.544Z,10.10
2023-01-20T14:05:29.025Z,10.57
2023-01-20T14:07:57.018Z,11.48
2023-01-20T14:10:24.376Z,10.45
2023-01-20T14:12:51.492Z,10.40
2023-01-20T14:15:29.658Z,12.40
2023-01-20T14:17:58.485Z,11.00
2023-01-20T14:20:26.656Z,10.73
2023-01-20T14:22:53.810Z,11.50
2023-01-20T14:25:25.244Z,11.35
2023-01-20T14:27:52.755Z,9.88
2023-01-20T14:30:24.973Z,10.77
2023-01-20T14:32:53.195Z,9.95
2023-01-20T14:35:31.318Z,11.73
2023-01-20T14:37:59.220Z,11.80
2023-01-20T14:40:28.025Z,10.65
2023-01-20T14:42:58.607Z,12.35
2023-01-20T14:45:27.157Z,12.20
2023-01-20T14:47:54.598Z,12.15
2023-01-20T14:50:22.167Z,12.60
2023-01-20T14:52:49.421Z,13.02
2023-01-20T14:55:36.366Z,12.18
2023-01-20T14:58:14.187Z,12.18
2023-01-20T15:00:45.597Z,12.88
2023-01-20T15:03:14.188Z,12.32
2023-01-20T15:05:42.461Z,11.68
2023-01-20T15:08:14.315Z,11.88
2023-01-20T15:10:41.520Z,12.10
2023-01-20T15:13:25.127Z,12.70
2023-01-20T15:15:52.605Z,13.20
2023-01-20T15:18:19.913Z,12.50
2023-01-20T15:20:48.212Z,12.88
2023-01-20T15:23:35.570Z,12.23
2023-01-20T15:26:10.208Z,13.65
2023-01-20T15:28:38.796Z,12.02
2023-01-20T15:31:06.068Z,12.60
2023-01-20T15:33:33.284Z,12.32
2023-01-20T15:36:01.074Z,13.10
2023-01-20T15:38:30.251Z,13.60
2023-01-20T15:40:57.490Z,12.88
2023-01-20T15:43:24.765Z,13.80
2023-01-20T15:45:51.930Z,13.88
2023-01-20T15:48:21.178Z,13.63
2023-01-20T15:50:49.180Z,13.55
2023-01-20T15:53:16.535Z,13.68
2023-01-20T15:55:48.237Z,12.45
2023-01-20T15:58:21.567Z,11.63
2023-01-20T16:00:49.079Z,12.45
2023-01-20T16:03:16.297Z,11.13
2023-01-20T16:05:43.425Z,10.77
2023-01-20T16:08:17.581Z,12.32
2023-01-20T16:10:44.703Z,12.20
2023-01-20T16:13:12.003Z,12.30
2023-01-20T16:15:39.679Z,11.70
2023-01-20T16:18:06.908Z,13.20
2023-01-20T16:20:34.840Z,13.25
2023-01-20T16:23:03.451Z,12.20
2023-01-20T16:25:30.789Z,12.38
2023-01-20T16:27:59.072Z,14.02
2023-01-20T16:30:26.599Z,13.40
2023-01-20T16:32:53.970Z,14.02
2023-01-20T16:35:23.568Z,13.38
2023-01-20T16:37:50.836Z,13.88
2023-01-20T16:40:19.629Z,14.43
2023-01-20T16:42:47.377Z,13.30
2023-01-20T16:45:34.704Z,13.55
2023-01-20T16:48:01.834Z,10.45
2023-01-20T16:50:28.932Z,14.27
2023-01-20T16:52:56.295Z,14.07
2023-01-20T16:55:24.323Z,14.80
2023-01-20T16:57:51.405Z,13.68
2023-01-20T17:00:19.432Z,13.35
2023-01-20T17:02:50.283Z,14.20
2023-01-20T17:05:22.318Z,14.70
2023-01-20T17:07:50.089Z,12.88
2023-01-20T17:10:18.135Z,14.60
2023-01-20T17:12:48.611Z,14.68
2023-01-20T17:15:16.037Z,14.38
2023-01-20T17:17:43.324Z,13.55
2023-01-20T17:20:10.726Z,14.60
2023-01-20T17:22:38.482Z,15.90
2023-01-20T17:25:06.482Z,14.63
2023-01-20T17:27:33.912Z,15.10
2023-01-20T17:30:01.191Z,14.38
2023-01-20T17:32:28.317Z,13.65
2023-01-20T17:34:55.479Z,16.02
2023-01-20T17:37:22.687Z,14.40
2023-01-20T17:39:49.793Z,15.15
2023-01-20T17:42:17.769Z,14.48
2023-01-20T17:44:45.297Z,14.40
2023-01-20T17:47:13.033Z,13.77
2023-01-20T17:49:40.404Z,14.23
2023-01-20T17:52:07.492Z,14.75
2023-01-20T17:54:35.211Z,14.43
2023-01-20T17:57:02.362Z,15.05
2023-01-20T17:59:29.570Z,13.48
2023-01-20T18:01:56.901Z,14.80
2023-01-20T18:04:24.075Z,13.02
2023-01-20T18:06:51.225Z,13.55
2023-01-20T18:09:18.350Z,13.77
2023-01-20T18:11:45.585Z,14.48
2023-01-20T18:14:12.683Z,13.93
2023-01-20T18:16:41.582Z,13.30
2023-01-20T18:19:13.103Z,14.20
2023-01-20T18:21:41.432Z,12.68
2023-01-20T18:24:10.202Z,13.27
2023-01-20T18:26:38.838Z,13.70
2023-01-20T18:29:16.548Z,15.32
2023-01-20T18:31:45.545Z,12.88
2023-01-20T18:34:15.697Z,14.25
2023-01-20T18:36:46.914Z,13.88
2023-01-20T18:39:16.026Z,15.43
2023-01-20T18:41:43.450Z,15.75
2023-01-20T18:44:10.985Z,15.85
2023-01-20T18:46:38.066Z,16.25
2023-01-20T18:49:08.035Z,17.67
2023-01-20T18:51:36.715Z,19.10
2023-01-20T18:54:05.779Z,16.60
2023-01-20T18:56:33.492Z,20.17
2023-01-20T18:59:01.447Z,19.48
2023-01-20T19:01:33.838Z,17.83
2023-01-20T19:04:02.373Z,18.95
2023-01-20T19:06:30.611Z,19.40
2023-01-20T19:08:58.924Z,17.42
2023-01-20T19:11:28.325Z,20.15
2023-01-20T19:13:55.811Z,19.08
2023-01-20T19:16:23.855Z,18.52
2023-01-20T19:18:52.520Z,19.42
2023-01-20T19:21:20.071Z,21.13
2023-01-20T19:23:50.774Z,23.70
2023-01-20T19:26:18.785Z,21.85
2023-01-20T19:28:46.611Z,21.38
2023-01-20T19:31:15.593Z,21.38
2023-01-20T19:33:43.338Z,21.10
2023-01-20T19:36:14.545Z,23.58
2023-01-20T19:38:42.009Z,22.60
2023-01-20T19:41:10.608Z,23.10
2023-01-20T19:43:38.061Z,21.80
2023-01-20T19:46:06.063Z,24.40
2023-01-20T19:48:33.580Z,21.10
2023-01-20T19:51:04.507Z,22.63
2023-01-20T19:53:31.799Z,23.15
2023-01-20T19:56:06.206Z,25.67
2023-01-20T19:58:33.441Z,23.42
2023-01-20T20:01:31.543Z,24.48
2023-01-20T20:03:59.233Z,22.48
2023-01-20T20:06:26.388Z,21.90
2023-01-20T20:08:54.064Z,25.35
2023-01-20T20:11:21.212Z,23.73
2023-01-20T20:13:48.361Z,24.95
2023-01-20T20:16:15.732Z,26.88
2023-01-20T20:18:42.977Z,24.95
2023-01-20T20:21:10.111Z,21.75
2023-01-20T20:23:37.266Z,23.35
2023-01-20T20:26:04.383Z,24.20
2023-01-20T20:28:31.484Z,23.48
2023-01-20T20:31:04.846Z,21.92
2023-01-20T20:33:32.275Z,22.27
2023-01-20T20:35:59.423Z,23.85
2023-01-20T20:38:26.631Z,23.65
2023-01-20T20:40:57.899Z,21.70
2023-01-20T20:45:55.597Z,19.75
2023-01-20T20:48:22.681Z,24.90
2023-01-20T20:50:49.873Z,21.95
2023-01-20T20:53:18.810Z,22.20
2023-01-20T20:55:45.948Z,22.23
2023-01-20T20:58:13.191Z,24.38
2023-01-20T21:00:40.331Z,22.70
2023-01-20T21:03:07.540Z,20.80
2023-01-20T21:05:35.298Z,23.35
2023-01-20T21:08:05.882Z,22.85
